Radiosonde details



Informationen :

Serial : D26003324
Type : Graw DFM
Frequency : 403.010MHz
Launchsite : Tampa Bay Area
Nearest town : Indian Shores, US (23.5km)

Altitude (Max) : 34574m at 2026-09-02 12:53:32
Speed (Max) : 107km/h at altitude 31228m

Average speed : 31km/h
Average ascent rate : 5m/s
Average descent rate : -8m/s
Ascent rate (Max) : 15.6m/s
Descent rate (Max): -44.7m/s

First frame :
ARGUS2 at 2026-09-02 11:06:35 at altitude 1318m (OG: 1276m)
Last frame :
ARGUS2 at 2026-09-02 14:06:27 at altitude 1679m (OG: 1637m)

Flighttime : 2h59m52s
Ascent time : 1h46m57s
Descent time : 1h12m55s
Uptime : -
Killtimer : -

Distance (Straight line distance): 68km

Distance (Route):


Frames : 479


Measurement :

Temperature : 16.6°C
Humidity : 0%
Pressure : 0hPa


Vertical profile (SkewT) :


Elevation profile :



Receiving stations :


Receiver Frames First received Last received
ARGUS2 479 2026-09-02 11:06:35 2026-09-02 14:06:27

Share per receiver :



All frames :


Receiver Date Latitude Longitude Direction Speed Altitude Climb Temperature Humidity Pressure Voltage Killtimer Uptime BKT XDATA
ARGUS22026-09-02 14:06:2727.82557-83.08360219°16km/h1679m-3.1m/s16.6°C0%0hPa0V00:00:0000:00:0000:00:00
ARGUS22026-09-02 14:05:4927.82667-83.08253225°11km/h1798m-3.2m/s15.9°C0%0hPa0V00:00:0000:00:0000:00:00
ARGUS22026-09-02 14:05:1227.82726-83.08167240°7km/h1911m-3.2m/s15.4°C0%0hPa0V00:00:0000:00:0000:00:00
ARGUS22026-09-02 14:04:3227.82787-83.08063237°11km/h2033m-3.0m/s14.5°C0%0hPa0V00:00:0000:00:0000:00:00
ARGUS22026-09-02 14:03:2727.82873-83.07854251°13km/h2236m-3.0m/s14.1°C0%0hPa0V00:00:0000:00:0000:00:00
ARGUS22026-09-02 14:03:0327.82895-83.07765260°13km/h2317m-3.3m/s14.0°C0%0hPa0V00:00:0000:00:0000:00:00
ARGUS22026-09-02 14:02:4227.82899-83.07691275°13km/h2387m-3.3m/s13.9°C0%0hPa0V00:00:0000:00:0000:00:00
ARGUS22026-09-02 14:02:1727.82899-83.07603271°11km/h2466m-3.3m/s13.7°C0%0hPa0V00:00:0000:00:0000:00:00
ARGUS22026-09-02 14:01:5727.82897-83.07536264°9km/h2538m-3.3m/s13.2°C0%0hPa0V00:00:0000:00:0000:00:00
ARGUS22026-09-02 14:01:3627.82901-83.07484265°7km/h2612m-3.4m/s12.5°C0%0hPa0V00:00:0000:00:0000:00:00
ARGUS22026-09-02 14:01:1527.82913-83.07439238°7km/h2686m-3.5m/s11.9°C0%0hPa0V00:00:0000:00:0000:00:00
ARGUS22026-09-02 14:00:5427.82931-83.07402242°7km/h2757m-3.3m/s11.7°C0%0hPa0V00:00:0000:00:0000:00:00
ARGUS22026-09-02 14:00:3427.82945-83.07374223°4km/h2830m-3.5m/s11.3°C0%0hPa0V00:00:0000:00:0000:00:00
ARGUS22026-09-02 14:00:1327.82958-83.07348249°5km/h2904m-3.5m/s11.0°C0%0hPa0V00:00:0000:00:0000:00:00
ARGUS22026-09-02 13:59:5227.82965-83.07315262°5km/h2973m-3.3m/s10.9°C0%0hPa0V00:00:0000:00:0000:00:00
ARGUS22026-09-02 13:59:3227.82977-83.07274247°9km/h3045m-3.5m/s10.7°C0%0hPa0V00:00:0000:00:0000:00:00
ARGUS22026-09-02 13:59:0927.82989-83.07230263°5km/h3119m-3.3m/s10.5°C0%0hPa0V00:00:0000:00:0000:00:00
ARGUS22026-09-02 13:58:4327.83005-83.07187250°5km/h3205m-3.3m/s10.5°C0%0hPa0V00:00:0000:00:0000:00:00
ARGUS22026-09-02 13:58:2227.83011-83.07160264°4km/h3277m-3.3m/s10.3°C0%0hPa0V00:00:0000:00:0000:00:00
ARGUS22026-09-02 13:57:3627.83012-83.07124258°2km/h3425m-3.3m/s9.3°C0%0hPa0V00:00:0000:00:0000:00:00
ARGUS22026-09-02 13:57:0627.83015-83.071160km/h3523m-3.4m/s8.6°C0%0hPa0V00:00:0000:00:0000:00:00
ARGUS22026-09-02 13:56:4227.83020-83.07107238°4km/h3603m-3.3m/s8.0°C0%0hPa0V00:00:0000:00:0000:00:00
ARGUS22026-09-02 13:56:1827.83031-83.07074256°7km/h3681m-3.3m/s7.6°C0%0hPa0V00:00:0000:00:0000:00:00
ARGUS22026-09-02 13:55:5827.83040-83.07033269°5km/h3747m-3.5m/s7.3°C0%0hPa0V00:00:0000:00:0000:00:00
ARGUS22026-09-02 13:55:3727.83044-83.06980261°9km/h3819m-3.4m/s6.8°C0%0hPa0V00:00:0000:00:0000:00:00
ARGUS22026-09-02 13:55:1727.83052-83.06926263°11km/h3889m-3.5m/s6.5°C0%0hPa0V00:00:0000:00:0000:00:00
ARGUS22026-09-02 13:54:5627.83066-83.06861263°11km/h3964m-3.5m/s6.0°C0%0hPa0V00:00:0000:00:0000:00:00
ARGUS22026-09-02 13:54:3627.83072-83.06785274°15km/h4037m-3.7m/s5.5°C0%0hPa0V00:00:0000:00:0000:00:00
ARGUS22026-09-02 13:54:1627.83070-83.06701273°13km/h4114m-3.8m/s4.9°C0%0hPa0V00:00:0000:00:0000:00:00
ARGUS22026-09-02 13:53:5527.83062-83.06611275°16km/h4189m-3.7m/s4.4°C0%0hPa0V00:00:0000:00:0000:00:00
ARGUS22026-09-02 13:53:3427.83063-83.06509268°16km/h4268m-3.8m/s3.9°C0%0hPa0V00:00:0000:00:0000:00:00
ARGUS22026-09-02 13:53:1427.83072-83.06401264°18km/h4343m-3.8m/s3.4°C0%0hPa0V00:00:0000:00:0000:00:00
ARGUS22026-09-02 13:52:5427.83084-83.06299264°15km/h4421m-3.8m/s2.8°C0%0hPa0V00:00:0000:00:0000:00:00
ARGUS22026-09-02 13:52:3327.83101-83.06207260°16km/h4496m-3.7m/s2.1°C0%0hPa0V00:00:0000:00:0000:00:00
ARGUS22026-09-02 13:52:1227.83113-83.06103268°18km/h4573m-3.8m/s1.4°C0%0hPa0V00:00:0000:00:0000:00:00
ARGUS22026-09-02 13:51:5127.83116-83.05990274°18km/h4649m-3.7m/s0.8°C0%0hPa0V00:00:0000:00:0000:00:00
ARGUS22026-09-02 13:51:3027.83102-83.05869278°20km/h4725m-3.6m/s0.5°C0%0hPa0V00:00:0000:00:0000:00:00
ARGUS22026-09-02 13:51:0927.83094-83.05755272°20km/h4801m-3.7m/s0.2°C0%0hPa0V00:00:0000:00:0000:00:00
ARGUS22026-09-02 13:49:4427.83100-83.05240272°22km/h5105m-3.9m/s-1.1°C0%0hPa0V00:00:0000:00:0000:00:00
ARGUS22026-09-02 13:49:2127.83107-83.05095266°24km/h5184m-3.6m/s-1.3°C0%0hPa0V00:00:0000:00:0000:00:00
ARGUS22026-09-02 13:49:0027.83114-83.04949268°24km/h5261m-3.4m/s-1.7°C0%0hPa0V00:00:0000:00:0000:00:00
ARGUS22026-09-02 13:48:4027.83125-83.04799264°26km/h5339m-3.9m/s-2.3°C0%0hPa0V00:00:0000:00:0000:00:00
ARGUS22026-09-02 13:48:1927.83149-83.04645261°27km/h5417m-4.0m/s-2.8°C0%0hPa0V00:00:0000:00:0000:00:00
ARGUS22026-09-02 13:47:5827.83182-83.04485258°27km/h5500m-4.0m/s-3.5°C0%0hPa0V00:00:0000:00:0000:00:00
ARGUS22026-09-02 13:47:3827.83211-83.04340259°26km/h5580m-4.0m/s-4.3°C0%0hPa0V00:00:0000:00:0000:00:00
ARGUS22026-09-02 13:47:1827.83243-83.04192259°26km/h5664m-4.1m/s-4.9°C0%0hPa0V00:00:0000:00:0000:00:00
ARGUS22026-09-02 13:46:5727.83260-83.04054270°20km/h5745m-3.8m/s-5.5°C0%0hPa0V00:00:0000:00:0000:00:00
ARGUS22026-09-02 13:46:3727.83243-83.03926291°20km/h5827m-4.0m/s-5.9°C0%0hPa0V00:00:0000:00:0000:00:00
ARGUS22026-09-02 13:46:1627.83196-83.03811295°24km/h5904m-3.9m/s-6.4°C0%0hPa0V00:00:0000:00:0000:00:00
ARGUS22026-09-02 13:45:5627.83135-83.03680302°24km/h5987m-3.8m/s-6.7°C0%0hPa0V00:00:0000:00:0000:00:00
ARGUS22026-09-02 13:45:3527.83075-83.03563301°22km/h6068m-4.0m/s-7.2°C0%0hPa0V00:00:0000:00:0000:00:00
ARGUS22026-09-02 13:45:1527.83026-83.03449297°20km/h6156m-4.2m/s-7.5°C0%0hPa0V00:00:0000:00:0000:00:00
ARGUS22026-09-02 13:44:5227.82981-83.03345301°18km/h6242m-4.0m/s-8.1°C0%0hPa0V00:00:0000:00:0000:00:00
ARGUS22026-09-02 13:44:2727.82930-83.03246307°16km/h6346m-4.2m/s-8.7°C0%0hPa0V00:00:0000:00:0000:00:00
ARGUS22026-09-02 13:44:0727.82901-83.03169286°15km/h6430m-4.0m/s-8.4°C0%0hPa0V00:00:0000:00:0000:00:00
ARGUS22026-09-02 13:43:4727.82881-83.03075280°16km/h6519m-4.3m/s-8.9°C0%0hPa0V00:00:0000:00:0000:00:00
ARGUS22026-09-02 13:43:2627.82874-83.02977278°18km/h6603m-4.4m/s-9.5°C0%0hPa0V00:00:0000:00:0000:00:00
ARGUS22026-09-02 13:43:0627.82854-83.02875285°18km/h6695m-4.3m/s-10.3°C0%0hPa0V00:00:0000:00:0000:00:00
ARGUS22026-09-02 13:42:4527.82834-83.02775282°18km/h6781m-4.3m/s-11.1°C0%0hPa0V00:00:0000:00:0000:00:00
ARGUS22026-09-02 13:42:2527.82821-83.02669291°16km/h6872m-4.2m/s-11.7°C0%0hPa0V00:00:0000:00:0000:00:00
ARGUS22026-09-02 13:42:0427.82793-83.02595292°11km/h6957m-4.2m/s-11.4°C0%0hPa0V00:00:0000:00:0000:00:00
ARGUS22026-09-02 13:41:4427.82779-83.02535284°9km/h7048m-4.2m/s-12.1°C0%0hPa0V00:00:0000:00:0000:00:00
ARGUS22026-09-02 13:41:2327.82762-83.02487300°5km/h7138m-4.2m/s-12.5°C0%0hPa0V00:00:0000:00:0000:00:00
ARGUS22026-09-02 13:41:0227.82751-83.02460306°5km/h7222m-4.2m/s-13.1°C0%0hPa0V00:00:0000:00:0000:00:00
ARGUS22026-09-02 13:40:4127.82730-83.02427308°9km/h7310m-4.1m/s-13.8°C0%0hPa0V00:00:0000:00:0000:00:00
ARGUS22026-09-02 13:40:2127.82697-83.02382322°15km/h7394m-4.0m/s-14.3°C0%0hPa0V00:00:0000:00:0000:00:00
ARGUS22026-09-02 13:40:0027.82631-83.02321320°18km/h7481m-4.2m/s-14.8°C0%0hPa0V00:00:0000:00:0000:00:00
ARGUS22026-09-02 13:39:4027.82551-83.02256321°20km/h7563m-4.1m/s-15.3°C0%0hPa0V00:00:0000:00:0000:00:00
ARGUS22026-09-02 13:39:2027.82468-83.02164312°24km/h7649m-4.1m/s-15.5°C0%0hPa0V00:00:0000:00:0000:00:00
ARGUS22026-09-02 13:38:5927.82393-83.02066308°22km/h7733m-4.4m/s-16.1°C0%0hPa0V00:00:0000:00:0000:00:00
ARGUS22026-09-02 13:38:3927.82332-83.01962302°20km/h7823m-4.2m/s-16.5°C0%0hPa0V00:00:0000:00:0000:00:00
ARGUS22026-09-02 13:38:1827.82287-83.01877302°15km/h7910m-4.2m/s-17.1°C0%0hPa0V00:00:0000:00:0000:00:00
ARGUS22026-09-02 13:37:5727.82247-83.01810302°15km/h8000m-4.4m/s-17.9°C0%0hPa0V00:00:0000:00:0000:00:00
ARGUS22026-09-02 13:37:3727.82214-83.01741299°13km/h8089m-4.5m/s-18.7°C0%0hPa0V00:00:0000:00:0000:00:00
ARGUS22026-09-02 13:37:1727.82185-83.01678297°13km/h8184m-4.7m/s-19.3°C0%0hPa0V00:00:0000:00:0000:00:00
ARGUS22026-09-02 13:36:5627.82162-83.01610287°13km/h8276m-4.6m/s-20.1°C0%0hPa0V00:00:0000:00:0000:00:00
ARGUS22026-09-02 13:36:3627.82140-83.01527289°15km/h8373m-4.8m/s-20.9°C0%0hPa0V00:00:0000:00:0000:00:00
ARGUS22026-09-02 13:36:1527.82119-83.01456288°13km/h8466m-4.7m/s-21.8°C0%0hPa0V00:00:0000:00:0000:00:00
ARGUS22026-09-02 13:35:5527.82088-83.01386301°15km/h8564m-4.8m/s-22.5°C0%0hPa0V00:00:0000:00:0000:00:00
ARGUS22026-09-02 13:35:3427.82051-83.01308302°15km/h8663m-4.7m/s-23.2°C0%0hPa0V00:00:0000:00:0000:00:00
ARGUS22026-09-02 13:35:1427.82016-83.01243295°13km/h8758m-4.8m/s-23.9°C0%0hPa0V00:00:0000:00:0000:00:00
ARGUS22026-09-02 13:34:5227.81998-83.01171281°11km/h8859m-4.6m/s-24.1°C0%0hPa0V00:00:0000:00:0000:00:00
ARGUS22026-09-02 13:34:3227.81995-83.01125276°5km/h8955m-5.1m/s-24.8°C0%0hPa0V00:00:0000:00:0000:00:00
ARGUS22026-09-02 13:34:1127.81995-83.01090260°4km/h9058m-5.0m/s-25.7°C0%0hPa0V00:00:0000:00:0000:00:00
ARGUS22026-09-02 13:33:5127.81989-83.01074306°4km/h9156m-4.9m/s-26.3°C0%0hPa0V00:00:0000:00:0000:00:00
ARGUS22026-09-02 13:33:3027.81974-83.01051316°5km/h9259m-4.9m/s-26.9°C0%0hPa0V00:00:0000:00:0000:00:00
ARGUS22026-09-02 13:33:1027.81953-83.010384km/h9357m-4.8m/s-27.6°C0%0hPa0V00:00:0000:00:0000:00:00
ARGUS22026-09-02 13:32:5027.81941-83.0104360°4km/h9459m-4.8m/s-28.4°C0%0hPa0V00:00:0000:00:0000:00:00
ARGUS22026-09-02 13:32:2927.81936-83.010580km/h9554m-4.9m/s-29.2°C0%0hPa0V00:00:0000:00:0000:00:00
ARGUS22026-09-02 13:32:0927.81935-83.0107084°4km/h9654m-4.8m/s-30.2°C0%0hPa0V00:00:0000:00:0000:00:00
ARGUS22026-09-02 13:31:4827.81938-83.01097118°5km/h9750m-4.8m/s-30.9°C0%0hPa0V00:00:0000:00:0000:00:00
ARGUS22026-09-02 13:31:2827.81955-83.01130110°5km/h9849m-4.8m/s-31.7°C0%0hPa0V00:00:0000:00:0000:00:00
ARGUS22026-09-02 13:31:0627.81958-83.0117885°9km/h9948m-4.8m/s-32.6°C0%0hPa0V00:00:0000:00:0000:00:00
ARGUS22026-09-02 13:30:4627.81928-83.0123345°13km/h10042m-4.8m/s-33.2°C0%0hPa0V00:00:0000:00:0000:00:00
ARGUS22026-09-02 13:30:2527.81880-83.0127730°11km/h10143m-4.6m/s-34.0°C0%0hPa0V00:00:0000:00:0000:00:00
ARGUS22026-09-02 13:30:0527.81820-83.01299357°13km/h10236m-4.7m/s-34.7°C0%0hPa0V00:00:0000:00:0000:00:00
ARGUS22026-09-02 13:29:4427.81745-83.01285348°16km/h10337m-4.9m/s-35.4°C0%0hPa0V00:00:0000:00:0000:00:00
ARGUS22026-09-02 13:29:2527.81660-83.01262347°16km/h10435m-5.0m/s-36.3°C0%0hPa0V00:00:0000:00:0000:00:00
ARGUS22026-09-02 13:29:0327.81580-83.01231342°15km/h10538m-5.1m/s-37.1°C0%0hPa0V00:00:0000:00:0000:00:00
ARGUS22026-09-02 13:28:4327.81511-83.01210340°16km/h10638m-4.9m/s-37.9°C0%0hPa0V00:00:0000:00:0000:00:00
ARGUS22026-09-02 13:28:2327.81413-83.01166342°22km/h10741m-4.8m/s-38.6°C0%0hPa0V00:00:0000:00:0000:00:00
ARGUS22026-09-02 13:28:0227.81307-83.01118339°24km/h10841m-5.0m/s-39.1°C0%0hPa0V00:00:0000:00:0000:00:00
ARGUS22026-09-02 13:27:4227.81182-83.01038330°29km/h10945m-5.2m/s-39.8°C0%0hPa0V00:00:0000:00:0000:00:00
ARGUS22026-09-02 13:27:2127.81045-83.00927324°38km/h11042m-4.8m/s-40.5°C0%0hPa0V00:00:0000:00:0000:00:00
ARGUS22026-09-02 13:27:0127.80886-83.00784326°38km/h11141m-5.1m/s-41.0°C0%0hPa0V00:00:0000:00:0000:00:00
ARGUS22026-09-02 13:26:4027.80725-83.00662328°38km/h11240m-5.1m/s-41.9°C0%0hPa0V00:00:0000:00:0000:00:00
ARGUS22026-09-02 13:26:2027.80553-83.00537328°38km/h11348m-5.3m/s-42.8°C0%0hPa0V00:00:0000:00:0000:00:00
ARGUS22026-09-02 13:25:5927.80389-83.00439335°35km/h11452m-5.3m/s-43.6°C0%0hPa0V00:00:0000:00:0000:00:00
ARGUS22026-09-02 13:25:3927.80219-83.00353339°35km/h11568m-5.6m/s-44.4°C0%0hPa0V00:00:0000:00:0000:00:00
ARGUS22026-09-02 13:25:1727.80048-83.00275340°35km/h11685m-5.6m/s-45.3°C0%0hPa0V00:00:0000:00:0000:00:00
ARGUS22026-09-02 13:24:5727.79873-83.00210345°37km/h11799m-5.9m/s-46.3°C0%0hPa0V00:00:0000:00:0000:00:00
ARGUS22026-09-02 13:24:3627.79683-83.00143345°38km/h11916m-5.4m/s-47.3°C0%0hPa0V00:00:0000:00:0000:00:00
ARGUS22026-09-02 13:24:1627.79493-83.00079345°38km/h12029m-5.7m/s-48.4°C0%0hPa0V00:00:0000:00:0000:00:00
ARGUS22026-09-02 13:23:5527.79292-83.00021347°40km/h12151m-5.9m/s-49.5°C0%0hPa0V00:00:0000:00:0000:00:00
ARGUS22026-09-02 13:23:3527.79089-82.99966347°44km/h12260m-5.3m/s-50.4°C0%0hPa0V00:00:0000:00:0000:00:00
ARGUS22026-09-02 13:23:1527.78848-82.99906347°47km/h12374m-5.5m/s-51.2°C0%0hPa0V00:00:0000:00:0000:00:00
ARGUS22026-09-02 13:22:5427.78608-82.99837346°49km/h12486m-5.7m/s-52.1°C0%0hPa0V00:00:0000:00:0000:00:00
ARGUS22026-09-02 13:22:3427.78343-82.99743343°51km/h12605m-5.7m/s-53.0°C0%0hPa0V00:00:0000:00:0000:00:00
ARGUS22026-09-02 13:22:1327.78097-82.99657344°49km/h12720m-5.8m/s-54.0°C0%0hPa0V00:00:0000:00:0000:00:00
ARGUS22026-09-02 13:21:5327.77860-82.99569346°47km/h12842m-5.9m/s-54.8°C0%0hPa0V00:00:0000:00:0000:00:00
ARGUS22026-09-02 13:21:3227.77641-82.99497347°42km/h12959m-5.9m/s-55.7°C0%0hPa0V00:00:0000:00:0000:00:00
ARGUS22026-09-02 13:21:1227.77440-82.99440350°38km/h13082m-5.8m/s-56.5°C0%0hPa0V00:00:0000:00:0000:00:00
ARGUS22026-09-02 13:20:5127.77266-82.99399349°33km/h13201m-6.1m/s-57.4°C0%0hPa0V00:00:0000:00:0000:00:00
ARGUS22026-09-02 13:20:3127.77102-82.99353349°31km/h13327m-5.9m/s-58.4°C0%0hPa0V00:00:0000:00:0000:00:00
ARGUS22026-09-02 13:20:0927.76928-82.99307348°35km/h13455m-5.8m/s-59.4°C0%0hPa0V00:00:0000:00:0000:00:00
ARGUS22026-09-02 13:19:4927.76751-82.99259349°37km/h13577m-6.0m/s-60.4°C0%0hPa0V00:00:0000:00:0000:00:00
ARGUS22026-09-02 13:19:2827.76557-82.99209349°40km/h13706m-5.9m/s-61.5°C0%0hPa0V00:00:0000:00:0000:00:00
ARGUS22026-09-02 13:19:0827.76351-82.99157348°44km/h13828m-6.2m/s-62.5°C0%0hPa0V00:00:0000:00:0000:00:00
ARGUS22026-09-02 13:18:4827.76112-82.99099350°47km/h13959m-6.3m/s-63.6°C0%0hPa0V00:00:0000:00:0000:00:00
ARGUS22026-09-02 13:18:2727.75870-82.99045354°49km/h14083m-6.2m/s-64.5°C0%0hPa0V00:00:0000:00:0000:00:00
ARGUS22026-09-02 13:18:0727.75642-82.99002349°38km/h14215m-6.2m/s-65.0°C0%0hPa0V00:00:0000:00:0000:00:00
ARGUS22026-09-02 13:17:4627.75475-82.98956346°31km/h14342m-6.3m/s-65.8°C0%0hPa0V00:00:0000:00:0000:00:00
ARGUS22026-09-02 13:17:2527.75330-82.98910345°24km/h14472m-6.2m/s-66.8°C0%0hPa0V00:00:0000:00:0000:00:00
ARGUS22026-09-02 13:17:0627.75222-82.98882346°18km/h14599m-6.3m/s-67.7°C0%0hPa0V00:00:0000:00:0000:00:00
ARGUS22026-09-02 13:16:4527.75146-82.988669km/h14735m-6.5m/s-68.6°C0%0hPa0V00:00:0000:00:0000:00:00
ARGUS22026-09-02 13:16:2427.75158-82.98861195°7km/h14868m-6.6m/s-68.4°C0%0hPa0V00:00:0000:00:0000:00:00
ARGUS22026-09-02 13:16:0427.75200-82.98836201°18km/h15010m-6.7m/s-67.3°C0%0hPa0V00:00:0000:00:0000:00:00
ARGUS22026-09-02 13:15:4327.75279-82.98792218°16km/h15148m-7.2m/s-68.0°C0%0hPa0V00:00:0000:00:0000:00:00
ARGUS22026-09-02 13:15:2327.75339-82.98700249°24km/h15299m-7.3m/s-68.6°C0%0hPa0V00:00:0000:00:0000:00:00
ARGUS22026-09-02 13:15:0127.75356-82.98547275°26km/h15456m-7.7m/s-67.5°C0%0hPa0V00:00:0000:00:0000:00:00
ARGUS22026-09-02 13:14:4127.75360-82.98426269°22km/h15611m-8.0m/s-65.6°C0%0hPa0V00:00:0000:00:0000:00:00
ARGUS22026-09-02 13:14:2127.75336-82.98285292°29km/h15777m-7.9m/s-65.8°C0%0hPa0V00:00:0000:00:0000:00:00
ARGUS22026-09-02 13:14:0027.75270-82.98139303°27km/h15934m-7.8m/s-66.4°C0%0hPa0V00:00:0000:00:0000:00:00
ARGUS22026-09-02 13:13:3927.75194-82.98019294°20km/h16099m-8.0m/s-67.0°C0%0hPa0V00:00:0000:00:0000:00:00
ARGUS22026-09-02 13:13:1927.75210-82.97911235°24km/h16257m-7.8m/s-67.3°C0%0hPa0V00:00:0000:00:0000:00:00
ARGUS22026-09-02 13:12:5827.75326-82.97766235°37km/h16423m-8.0m/s-67.9°C0%0hPa0V00:00:0000:00:0000:00:00
ARGUS22026-09-02 13:12:3827.75410-82.97597242°31km/h16583m-7.8m/s-67.9°C0%0hPa0V00:00:0000:00:0000:00:00
ARGUS22026-09-02 13:12:1727.75522-82.97448232°29km/h16752m-8.2m/s-68.3°C0%0hPa0V00:00:0000:00:0000:00:00
ARGUS22026-09-02 13:11:5627.75598-82.97330230°31km/h16926m-8.4m/s-67.6°C0%0hPa0V00:00:0000:00:0000:00:00
ARGUS22026-09-02 13:11:3527.75715-82.97144242°38km/h17110m-8.4m/s-67.8°C0%0hPa0V00:00:0000:00:0000:00:00
ARGUS22026-09-02 13:11:1327.75783-82.96948252°27km/h17289m-8.7m/s-65.5°C0%0hPa0V00:00:0000:00:0000:00:00
ARGUS22026-09-02 13:10:5127.75843-82.96863195°13km/h17498m-8.8m/s-65.7°C0%0hPa0V00:00:0000:00:0000:00:00
ARGUS22026-09-02 13:09:5627.76018-82.96507254°31km/h17980m-9.2m/s-63.8°C0%0hPa0V00:00:0000:00:0000:00:00
ARGUS22026-09-02 13:09:3227.76092-82.96252254°44km/h18203m-9.3m/s-63.6°C0%0hPa0V00:00:0000:00:0000:00:00
ARGUS22026-09-02 13:09:1127.76135-82.96034268°35km/h18390m-9.6m/s-65.2°C0%0hPa0V00:00:0000:00:0000:00:00
ARGUS22026-09-02 13:08:5127.76132-82.95863264°33km/h18594m-9.9m/s-65.3°C0%0hPa0V00:00:0000:00:0000:00:00
ARGUS22026-09-02 13:08:2927.76139-82.95601282°49km/h18802m-9.8m/s-64.6°C0%0hPa0V00:00:0000:00:0000:00:00
ARGUS22026-09-02 13:08:0927.76071-82.95354288°35km/h19005m-10.3m/s-65.0°C0%0hPa0V00:00:0000:00:0000:00:00
ARGUS22026-09-02 13:07:4827.76040-82.95193259°22km/h19221m-10.3m/s-65.2°C0%0hPa0V00:00:0000:00:0000:00:00
ARGUS22026-09-02 13:07:2827.76066-82.95026275°40km/h19430m-10.6m/s-63.8°C0%0hPa0V00:00:0000:00:0000:00:00
ARGUS22026-09-02 13:07:0827.76008-82.94845296°26km/h19654m-10.8m/s-63.4°C0%0hPa0V00:00:0000:00:0000:00:00
ARGUS22026-09-02 13:06:4627.75973-82.94737260°13km/h19883m-11.0m/s-63.1°C0%0hPa0V00:00:0000:00:0000:00:00
ARGUS22026-09-02 13:06:2627.75968-82.94615296°22km/h20116m-11.4m/s-63.2°C0%0hPa0V00:00:0000:00:0000:00:00
ARGUS22026-09-02 13:06:0327.75995-82.94551224°26km/h20366m-11.6m/s-61.0°C0%0hPa0V00:00:0000:00:0000:00:00
ARGUS22026-09-02 13:05:4227.76114-82.94396229°46km/h20609m-11.7m/s-60.0°C0%0hPa0V00:00:0000:00:0000:00:00
ARGUS22026-09-02 13:05:2227.76251-82.94174254°38km/h20858m-11.7m/s-60.1°C0%0hPa0V00:00:0000:00:0000:00:00
ARGUS22026-09-02 13:05:0127.76365-82.93973235°51km/h21111m-12.1m/s-59.7°C0%0hPa0V00:00:0000:00:0000:00:00
ARGUS22026-09-02 13:04:4127.76464-82.93689261°46km/h21355m-12.4m/s-58.9°C0%0hPa0V00:00:0000:00:0000:00:00
ARGUS22026-09-02 13:04:1927.76548-82.93396255°57km/h21615m-12.4m/s-58.2°C0%0hPa0V00:00:0000:00:0000:00:00
ARGUS22026-09-02 13:03:5927.76568-82.93091278°51km/h21868m-12.6m/s-58.5°C0%0hPa0V00:00:0000:00:0000:00:00
ARGUS22026-09-02 13:03:3927.76579-82.92801280°42km/h22141m-13.0m/s-57.3°C0%0hPa0V00:00:0000:00:0000:00:00
ARGUS22026-09-02 13:03:1827.76518-82.92555290°44km/h22408m-13.3m/s-57.7°C0%0hPa0V00:00:0000:00:0000:00:00
ARGUS22026-09-02 13:02:5727.76462-82.92360287°35km/h22695m-13.8m/s-55.9°C0%0hPa0V00:00:0000:00:0000:00:00
ARGUS22026-09-02 13:02:3727.76373-82.92181292°31km/h22974m-13.7m/s-56.7°C0%0hPa0V00:00:0000:00:0000:00:00
ARGUS22026-09-02 13:02:1727.76313-82.91997281°31km/h23272m-14.4m/s-55.9°C0%0hPa0V00:00:0000:00:0000:00:00
ARGUS22026-09-02 13:01:5527.76287-82.91779276°31km/h23582m-15.0m/s-54.8°C0%0hPa0V00:00:0000:00:0000:00:00
ARGUS22026-09-02 13:01:3427.76260-82.91595284°27km/h23904m-15.5m/s-55.4°C0%0hPa0V00:00:0000:00:0000:00:00
ARGUS22026-09-02 13:01:0827.76246-82.91479247°22km/h24334m-16.2m/s-55.5°C0%0hPa0V00:00:0000:00:0000:00:00
ARGUS22026-09-02 13:00:4727.76321-82.91295253°44km/h24667m-17.0m/s-55.2°C0%0hPa0V00:00:0000:00:0000:00:00
ARGUS22026-09-02 13:00:2727.76384-82.91014255°51km/h25029m-17.5m/s-53.9°C0%0hPa0V00:00:0000:00:0000:00:00
ARGUS22026-09-02 13:00:0627.76466-82.90711259°51km/h25384m-18.0m/s-51.9°C0%0hPa0V00:00:0000:00:0000:00:00
ARGUS22026-09-02 12:59:4627.76512-82.90347269°55km/h25767m-18.5m/s-51.3°C0%0hPa0V00:00:0000:00:0000:00:00
ARGUS22026-09-02 12:59:2427.76508-82.90021285°51km/h26155m-18.7m/s-50.9°C0%0hPa0V00:00:0000:00:0000:00:00
ARGUS22026-09-02 12:59:0427.76497-82.89703270°62km/h26532m-19.0m/s-50.0°C0%0hPa0V00:00:0000:00:0000:00:00
ARGUS22026-09-02 12:58:4427.76501-82.89351266°47km/h26936m-19.4m/s-48.5°C0%0hPa0V00:00:0000:00:0000:00:00
ARGUS22026-09-02 12:58:2327.76577-82.89114239°47km/h27338m-20.6m/s-46.3°C0%0hPa0V00:00:0000:00:0000:00:00
ARGUS22026-09-02 12:58:0227.76729-82.88798255°66km/h27778m-21.6m/s-46.0°C0%0hPa0V00:00:0000:00:0000:00:00
ARGUS22026-09-02 12:57:4327.76846-82.88465249°53km/h28222m-22.7m/s-45.3°C0%0hPa0V00:00:0000:00:0000:00:00
ARGUS22026-09-02 12:57:2227.76915-82.88152260°57km/h28716m-24.2m/s-44.8°C0%0hPa0V00:00:0000:00:0000:00:00
ARGUS22026-09-02 12:57:0227.76965-82.87862265°47km/h29208m-25.0m/s-44.0°C0%0hPa0V00:00:0000:00:0000:00:00
ARGUS22026-09-02 12:56:4127.77014-82.87606249°47km/h29749m-25.8m/s-45.1°C0%0hPa0V00:00:0000:00:0000:00:00
ARGUS22026-09-02 12:56:2027.77088-82.87256268°69km/h30270m-26.2m/s-43.8°C0%0hPa0V00:00:0000:00:0000:00:00
ARGUS22026-09-02 12:56:0027.77039-82.86869289°64km/h30820m-26.3m/s-44.8°C0%0hPa0V00:00:0000:00:0000:00:00
ARGUS22026-09-02 12:55:3927.76960-82.86506285°60km/h31354m-27.0m/s-42.3°C0%0hPa0V00:00:0000:00:0000:00:00
ARGUS22026-09-02 12:55:1927.76872-82.86166285°64km/h31939m-28.4m/s-38.8°C0%0hPa0V00:00:0000:00:0000:00:00
ARGUS22026-09-02 12:54:5727.76813-82.85827269°42km/h32541m-27.6m/s-37.1°C0%0hPa0V00:00:0000:00:0000:00:00
ARGUS22026-09-02 12:54:3627.76725-82.85656288°20km/h33124m-27.6m/s-37.1°C0%0hPa0V00:00:0000:00:0000:00:00
ARGUS22026-09-02 12:54:1627.76691-82.85429294°57km/h33730m-29.6m/s-38.2°C0%0hPa0V00:00:0000:00:0000:00:00
ARGUS22026-09-02 12:53:5527.76571-82.85221252°33km/h34473m-44.7m/s-35.7°C0%0hPa0V00:00:0000:00:0000:00:00
ARGUS22026-09-02 12:53:3227.76495-82.85059361°84km/h34574m0.3m/s-35.9°C0%0hPa0V00:00:0000:00:0000:00:00
ARGUS22026-09-02 12:53:1027.76413-82.84908291°64km/h34440m2.8m/s-36.6°C0%0hPa0V00:00:0000:00:0000:00:00
ARGUS22026-09-02 12:52:4927.76279-82.84699341°29km/h34303m3.5m/s-37.8°C0%0hPa0V00:00:0000:00:0000:00:00
ARGUS22026-09-02 12:52:2927.76221-82.84452285°69km/h34177m5.4m/s-37.7°C0%0hPa0V00:00:0000:00:0000:00:00
ARGUS22026-09-02 12:52:0827.76122-82.84246341°35km/h34061m2.9m/s-38.2°C0%0hPa0V00:00:0000:00:0000:00:00
ARGUS22026-09-02 12:51:4827.76078-82.84057274°68km/h33941m4.3m/s-39.0°C0%0hPa0V00:00:0000:00:0000:00:00
ARGUS22026-09-02 12:51:2727.75982-82.83837211°7km/h33828m0.8m/s-39.4°C0%0hPa0V00:00:0000:00:0000:00:00
ARGUS22026-09-02 12:51:0727.75923-82.83563319°58km/h33708m-0.2m/s-39.3°C0%0hPa0V00:00:0000:00:0000:00:00
ARGUS22026-09-02 12:50:4527.75906-82.83333277°71km/h33577m7.8m/s-39.0°C0%0hPa0V00:00:0000:00:0000:00:00
ARGUS22026-09-02 12:50:2427.75877-82.83162154°37km/h33444m5.8m/s-38.8°C0%0hPa0V00:00:0000:00:0000:00:00
ARGUS22026-09-02 12:49:4227.75776-82.8287268°37km/h33152m5.2m/s-37.7°C0%0hPa0V00:00:0000:00:0000:00:00
ARGUS22026-09-02 12:49:2127.75707-82.82765309°86km/h33013m5.7m/s-37.6°C0%0hPa0V00:00:0000:00:0000:00:00
ARGUS22026-09-02 12:49:0127.75572-82.82638232°42km/h32864m3.7m/s-37.4°C0%0hPa0V00:00:0000:00:0000:00:00
ARGUS22026-09-02 12:48:4027.75501-82.82410295°60km/h32708m1.8m/s-37.6°C0%0hPa0V00:00:0000:00:0000:00:00
ARGUS22026-09-02 12:48:2027.75434-82.82220226°11km/h32562m2.9m/s-38.0°C0%0hPa0V00:00:0000:00:0000:00:00
ARGUS22026-09-02 12:48:0027.75322-82.81923356°15km/h32404m11.6m/s-38.9°C0%0hPa0V00:00:0000:00:0000:00:00
ARGUS22026-09-02 12:47:4027.75309-82.81626279°97km/h32272m11.1m/s-38.3°C0%0hPa0V00:00:0000:00:0000:00:00
ARGUS22026-09-02 12:47:1927.75241-82.81251247°102km/h32122m8.7m/s-38.4°C0%0hPa0V00:00:0000:00:0000:00:00
ARGUS22026-09-02 12:46:5827.75166-82.80899343°31km/h31993m3.2m/s-38.6°C0%0hPa0V00:00:0000:00:0000:00:00
ARGUS22026-09-02 12:46:3827.75100-82.80554311°93km/h31868m2.5m/s-40.3°C0%0hPa0V00:00:0000:00:0000:00:00
ARGUS22026-09-02 12:46:1727.75037-82.80285280°86km/h31750m9.2m/s-40.9°C0%0hPa0V00:00:0000:00:0000:00:00
ARGUS22026-09-02 12:45:5727.74893-82.80052259°68km/h31623m6.6m/s-41.3°C0%0hPa0V00:00:0000:00:0000:00:00
ARGUS22026-09-02 12:45:3627.74690-82.7981529km/h31497m1.0m/s-40.9°C0%0hPa0V00:00:0000:00:0000:00:00
ARGUS22026-09-02 12:45:1627.74565-82.79543314°75km/h31365m8.1m/s-40.9°C0%0hPa0V00:00:0000:00:0000:00:00
ARGUS22026-09-02 12:44:5527.74503-82.79258281°106km/h31228m7.9m/s-41.0°C0%0hPa0V00:00:0000:00:0000:00:00
ARGUS22026-09-02 12:44:3327.74479-82.78908272°97km/h31085m10.0m/s-40.9°C0%0hPa0V00:00:0000:00:0000:00:00
ARGUS22026-09-02 12:44:1227.74372-82.78571252°35km/h30950m12.7m/s-41.6°C0%0hPa0V00:00:0000:00:0000:00:00
ARGUS22026-09-02 12:43:5227.74322-82.78184256°15km/h30807m0.1m/s-42.3°C0%0hPa0V00:00:0000:00:0000:00:00
ARGUS22026-09-02 12:43:3127.74295-82.77836299°99km/h30673m2.8m/s-42.6°C0%0hPa0V00:00:0000:00:0000:00:00
ARGUS22026-09-02 12:43:1127.74244-82.77543276°75km/h30538m10.8m/s-42.4°C0%0hPa0V00:00:0000:00:0000:00:00
ARGUS22026-09-02 12:42:5027.74191-82.77222251°46km/h30408m15.6m/s-41.9°C0%0hPa0V00:00:0000:00:0000:00:00
ARGUS22026-09-02 12:42:3027.74210-82.76854289°80km/h30275m6.7m/s-41.7°C0%0hPa0V00:00:0000:00:0000:00:00
ARGUS22026-09-02 12:42:0927.74222-82.76473257°97km/h30157m4.3m/s-41.6°C0%0hPa0V00:00:0000:00:0000:00:00
ARGUS22026-09-02 12:41:4827.74264-82.76100235°44km/h30041m7.1m/s-42.0°C0%0hPa0V00:00:0000:00:0000:00:00
ARGUS22026-09-02 12:41:2827.74385-82.75725291°44km/h29923m2.0m/s-43.0°C0%0hPa0V00:00:0000:00:0000:00:00
ARGUS22026-09-02 12:41:0727.74492-82.75411251°93km/h29809m2.1m/s-43.7°C0%0hPa0V00:00:0000:00:0000:00:00
ARGUS22026-09-02 12:40:4727.74564-82.75168220°55km/h29679m9.9m/s-44.0°C0%0hPa0V00:00:0000:00:0000:00:00
ARGUS22026-09-02 12:40:2627.74634-82.74961226°2km/h29547m5.4m/s-44.2°C0%0hPa0V00:00:0000:00:0000:00:00
ARGUS22026-09-02 12:40:0527.74707-82.74746250°49km/h29411m4.5m/s-43.7°C0%0hPa0V00:00:0000:00:0000:00:00
ARGUS22026-09-02 12:39:4427.74700-82.74522270°75km/h29267m11.9m/s-43.9°C0%0hPa0V00:00:0000:00:0000:00:00
ARGUS22026-09-02 12:39:2327.74743-82.74273269°24km/h29125m4.0m/s-44.0°C0%0hPa0V00:00:0000:00:0000:00:00
ARGUS22026-09-02 12:39:0327.74771-82.73983276°29km/h28973m12.0m/s-44.5°C0%0hPa0V00:00:0000:00:0000:00:00
ARGUS22026-09-02 12:38:4127.74820-82.73694248°91km/h28823m5.2m/s-45.1°C0%0hPa0V00:00:0000:00:0000:00:00
ARGUS22026-09-02 12:38:2127.74849-82.73396255°29km/h28685m4.5m/s-45.7°C0%0hPa0V00:00:0000:00:0000:00:00
ARGUS22026-09-02 12:38:0127.74886-82.73066293°33km/h28538m10.3m/s-46.2°C0%0hPa0V00:00:0000:00:0000:00:00
ARGUS22026-09-02 12:37:4027.74950-82.72780244°77km/h28408m5.1m/s-46.4°C0%0hPa0V00:00:0000:00:0000:00:00
ARGUS22026-09-02 12:37:2027.75028-82.72455245°82km/h28272m7.6m/s-46.1°C0%0hPa0V00:00:0000:00:0000:00:00
ARGUS22026-09-02 12:36:5927.75140-82.72114247°62km/h28151m8.6m/s-46.4°C0%0hPa0V00:00:0000:00:0000:00:00
ARGUS22026-09-02 12:36:3927.75235-82.71726287°71km/h28028m4.0m/s-46.6°C0%0hPa0V00:00:0000:00:0000:00:00
ARGUS22026-09-02 12:36:1827.75308-82.71332256°69km/h27915m6.1m/s-47.3°C0%0hPa0V00:00:0000:00:0000:00:00
ARGUS22026-09-02 12:35:5827.75407-82.70930266°62km/h27788m5.6m/s-47.3°C0%0hPa0V00:00:0000:00:0000:00:00
ARGUS22026-09-02 12:35:3627.75521-82.70582261°66km/h27672m7.7m/s-47.5°C0%0hPa0V00:00:0000:00:0000:00:00
ARGUS22026-09-02 12:35:1527.75670-82.70286235°53km/h27547m6.5m/s-47.2°C0%0hPa0V00:00:0000:00:0000:00:00
ARGUS22026-09-02 12:34:5527.75758-82.70014252°40km/h27423m8.5m/s-47.4°C0%0hPa0V00:00:0000:00:0000:00:00
ARGUS22026-09-02 12:34:3427.75802-82.69817258°29km/h27294m7.0m/s-47.4°C0%0hPa0V00:00:0000:00:0000:00:00
ARGUS22026-09-02 12:34:1427.75811-82.69554314°49km/h27175m8.5m/s-47.1°C0%0hPa0V00:00:0000:00:0000:00:00
ARGUS22026-09-02 12:33:5427.75821-82.69287264°55km/h27040m6.4m/s-47.8°C0%0hPa0V00:00:0000:00:0000:00:00
ARGUS22026-09-02 12:33:3227.75769-82.69019280°62km/h26907m3.1m/s-48.7°C0%0hPa0V00:00:0000:00:0000:00:00
ARGUS22026-09-02 12:33:1127.75704-82.68697253°80km/h26773m4.1m/s-48.8°C0%0hPa0V00:00:0000:00:0000:00:00
ARGUS22026-09-02 12:32:5027.75687-82.68340264°77km/h26650m1.1m/s-48.7°C0%0hPa0V00:00:0000:00:0000:00:00
ARGUS22026-09-02 12:32:3027.75673-82.67970279°58km/h26528m9.3m/s-48.7°C0%0hPa0V00:00:0000:00:0000:00:00
ARGUS22026-09-02 12:32:0927.75677-82.67615258°64km/h26404m6.2m/s-49.2°C0%0hPa0V00:00:0000:00:0000:00:00
ARGUS22026-09-02 12:31:4927.75693-82.67287241°73km/h26285m3.6m/s-49.9°C0%0hPa0V00:00:0000:00:0000:00:00
ARGUS22026-09-02 12:31:2927.75709-82.66983248°38km/h26163m2.5m/s-50.2°C0%0hPa0V00:00:0000:00:0000:00:00
ARGUS22026-09-02 12:31:0827.75690-82.66710254°68km/h26040m4.1m/s-50.4°C0%0hPa0V00:00:0000:00:0000:00:00
ARGUS22026-09-02 12:30:4727.75722-82.66409261°53km/h25917m8.1m/s0°C0%0hPa0V00:00:0000:00:0000:00:00
ARGUS22026-09-02 12:30:2627.75768-82.66076287°60km/h25782m3.6m/s-51.5°C0%0hPa0V00:00:0000:00:0000:00:00
ARGUS22026-09-02 12:30:0427.75830-82.65726271°69km/h25655m4.7m/s-51.7°C0%0hPa0V00:00:0000:00:0000:00:00
ARGUS22026-09-02 12:29:4427.75921-82.65385269°68km/h25538m4.2m/s-52.1°C0%0hPa0V00:00:0000:00:0000:00:00
ARGUS22026-09-02 12:29:2427.76011-82.65085252°75km/h25415m6.5m/s-52.9°C0%0hPa0V00:00:0000:00:0000:00:00
ARGUS22026-09-02 12:29:0327.76135-82.64808269°64km/h25299m4.8m/s-53.6°C0%0hPa0V00:00:0000:00:0000:00:00
ARGUS22026-09-02 12:28:2227.76408-82.64145233°68km/h25066m8.3m/s-54.8°C0%0hPa0V00:00:0000:00:0000:00:00
ARGUS22026-09-02 12:27:4127.76607-82.63577234°60km/h24824m4.6m/s-55.5°C0%0hPa0V00:00:0000:00:0000:00:00
ARGUS22026-09-02 12:27:2127.76699-82.63326219°38km/h24704m3.4m/s-56.1°C0%0hPa0V00:00:0000:00:0000:00:00
ARGUS22026-09-02 12:26:5927.76806-82.63140221°46km/h24576m4.7m/s-56.4°C0%0hPa0V00:00:0000:00:0000:00:00
ARGUS22026-09-02 12:26:3927.76880-82.63031182°33km/h24449m3.4m/s-56.0°C0%0hPa0V00:00:0000:00:0000:00:00
ARGUS22026-09-02 12:26:1827.76907-82.62950268°15km/h24314m7.6m/s-56.3°C0%0hPa0V00:00:0000:00:0000:00:00
ARGUS22026-09-02 12:25:5827.76838-82.62912342°24km/h24188m7.5m/s-56.0°C0%0hPa0V00:00:0000:00:0000:00:00
ARGUS22026-09-02 12:25:3827.76731-82.62832295°29km/h24055m6.6m/s-55.4°C0%0hPa0V00:00:0000:00:0000:00:00
ARGUS22026-09-02 12:25:1727.76640-82.62725319°24km/h23940m4.8m/s-55.1°C0%0hPa0V00:00:0000:00:0000:00:00
ARGUS22026-09-02 12:24:5727.76502-82.62580321°60km/h23812m5.8m/s-54.4°C0%0hPa0V00:00:0000:00:0000:00:00
ARGUS22026-09-02 12:24:3627.76378-82.62415306°37km/h23685m7.6m/s-53.9°C0%0hPa0V00:00:0000:00:0000:00:00
ARGUS22026-09-02 12:24:1627.76297-82.62247271°22km/h23559m6.4m/s-54.1°C0%0hPa0V00:00:0000:00:0000:00:00
ARGUS22026-09-02 12:23:5527.76239-82.62067290°42km/h23442m5.0m/s-54.4°C0%0hPa0V00:00:0000:00:0000:00:00
ARGUS22026-09-02 12:23:3427.76160-82.61845317°53km/h23320m4.3m/s-55.6°C0%0hPa0V00:00:0000:00:0000:00:00
ARGUS22026-09-02 12:23:1427.76067-82.61663295°47km/h23192m6.8m/s-56.0°C0%0hPa0V00:00:0000:00:0000:00:00
ARGUS22026-09-02 12:22:5427.75956-82.61469280°35km/h23071m4.8m/s-56.6°C0%0hPa0V00:00:0000:00:0000:00:00
ARGUS22026-09-02 12:22:3427.75868-82.61272302°53km/h22960m7.6m/s-56.3°C0%0hPa0V00:00:0000:00:0000:00:00
ARGUS22026-09-02 12:22:1327.75738-82.61046295°60km/h22837m4.6m/s-56.1°C0%0hPa0V00:00:0000:00:0000:00:00
ARGUS22026-09-02 12:21:5127.75618-82.60816293°33km/h22725m5.7m/s-55.9°C0%0hPa0V00:00:0000:00:0000:00:00
ARGUS22026-09-02 12:21:3127.75578-82.60614297°31km/h22622m7.2m/s-56.1°C0%0hPa0V00:00:0000:00:0000:00:00
ARGUS22026-09-02 12:21:1027.75501-82.60406298°44km/h22513m8.0m/s-57.0°C0%0hPa0V00:00:0000:00:0000:00:00
ARGUS22026-09-02 12:20:5027.75399-82.60156300°55km/h22406m4.0m/s-57.5°C0%0hPa0V00:00:0000:00:0000:00:00
ARGUS22026-09-02 12:20:3027.75315-82.59859302°62km/h22298m4.3m/s-57.3°C0%0hPa0V00:00:0000:00:0000:00:00
ARGUS22026-09-02 12:20:1027.75280-82.59574289°51km/h22195m5.0m/s-57.0°C0%0hPa0V00:00:0000:00:0000:00:00
ARGUS22026-09-02 12:19:4827.75261-82.59278254°44km/h22086m5.2m/s-57.3°C0%0hPa0V00:00:0000:00:0000:00:00
ARGUS22026-09-02 12:19:2827.75290-82.58959249°46km/h21982m3.0m/s-57.4°C0%0hPa0V00:00:0000:00:0000:00:00
ARGUS22026-09-02 12:19:0827.75340-82.58645276°68km/h21871m5.1m/s-58.0°C0%0hPa0V00:00:0000:00:0000:00:00
ARGUS22026-09-02 12:18:4727.75358-82.58318247°49km/h21760m4.6m/s-58.2°C0%0hPa0V00:00:0000:00:0000:00:00
ARGUS22026-09-02 12:18:2727.75438-82.57995240°62km/h21644m3.8m/s-58.0°C0%0hPa0V00:00:0000:00:0000:00:00
ARGUS22026-09-02 12:18:0727.75573-82.57684242°66km/h21539m6.0m/s-58.1°C0%0hPa0V00:00:0000:00:0000:00:00
ARGUS22026-09-02 12:17:4627.75695-82.57405240°55km/h21423m6.9m/s-57.7°C0%0hPa0V00:00:0000:00:0000:00:00
ARGUS22026-09-02 12:17:2527.75782-82.57162240°71km/h21311m2.8m/s-58.4°C0%0hPa0V00:00:0000:00:0000:00:00
ARGUS22026-09-02 12:17:0527.75875-82.56851263°64km/h21201m5.5m/s-58.5°C0%0hPa0V00:00:0000:00:0000:00:00
ARGUS22026-09-02 12:16:4327.75988-82.56534251°47km/h21088m7.0m/s-58.5°C0%0hPa0V00:00:0000:00:0000:00:00
ARGUS22026-09-02 12:16:2427.76108-82.56282251°57km/h20982m4.0m/s-58.5°C0%0hPa0V00:00:0000:00:0000:00:00
ARGUS22026-09-02 12:16:0227.76206-82.56087220°27km/h20871m3.9m/s-58.7°C0%0hPa0V00:00:0000:00:0000:00:00
ARGUS22026-09-02 12:15:4227.76267-82.55923261°40km/h20771m5.4m/s-59.1°C0%0hPa0V00:00:0000:00:0000:00:00
ARGUS22026-09-02 12:15:2127.76295-82.55710253°38km/h20669m6.5m/s-59.2°C0%0hPa0V00:00:0000:00:0000:00:00
ARGUS22026-09-02 12:15:0127.76379-82.55526252°24km/h20568m6.3m/s-59.6°C0%0hPa0V00:00:0000:00:0000:00:00
ARGUS22026-09-02 12:14:4027.76437-82.55349227°16km/h20460m5.2m/s-59.7°C0%0hPa0V00:00:0000:00:0000:00:00
ARGUS22026-09-02 12:14:2027.76449-82.55259293°16km/h20358m5.9m/s-60.3°C0%0hPa0V00:00:0000:00:0000:00:00
ARGUS22026-09-02 12:14:0027.76457-82.55182145°13km/h20255m6.1m/s-61.5°C0%0hPa0V00:00:0000:00:0000:00:00
ARGUS22026-09-02 12:13:3927.76422-82.55170354°22km/h20150m5.8m/s-62.6°C0%0hPa0V00:00:0000:00:0000:00:00
ARGUS22026-09-02 12:13:1927.76325-82.55089326°18km/h20040m5.4m/s-62.4°C0%0hPa0V00:00:0000:00:0000:00:00
ARGUS22026-09-02 12:12:5827.76266-82.54962283°33km/h19929m4.8m/s-62.4°C0%0hPa0V00:00:0000:00:0000:00:00
ARGUS22026-09-02 12:12:3827.76264-82.54842266°9km/h19822m5.0m/s-62.6°C0%0hPa0V00:00:0000:00:0000:00:00
ARGUS22026-09-02 12:12:1727.76234-82.54745313°31km/h19715m5.1m/s-62.9°C0%0hPa0V00:00:0000:00:0000:00:00
ARGUS22026-09-02 12:11:5627.76196-82.54636288°31km/h19601m6.1m/s-63.0°C0%0hPa0V00:00:0000:00:0000:00:00
ARGUS22026-09-02 12:11:3627.76163-82.54471270°33km/h19493m6.7m/s-62.6°C0%0hPa0V00:00:0000:00:0000:00:00
ARGUS22026-09-02 12:11:1627.76130-82.54272301°44km/h19376m5.2m/s-62.8°C0%0hPa0V00:00:0000:00:0000:00:00
ARGUS22026-09-02 12:10:5427.76150-82.54043234°35km/h19262m5.8m/s-63.1°C0%0hPa0V00:00:0000:00:0000:00:00
ARGUS22026-09-02 12:10:3427.76238-82.53884239°38km/h19158m6.8m/s-64.2°C0%0hPa0V00:00:0000:00:0000:00:00
ARGUS22026-09-02 12:09:5327.76355-82.53641276°24km/h18949m6.1m/s-63.9°C0%0hPa0V00:00:0000:00:0000:00:00
ARGUS22026-09-02 12:09:3227.76376-82.53451253°33km/h18843m4.4m/s-63.6°C0%0hPa0V00:00:0000:00:0000:00:00
ARGUS22026-09-02 12:09:1227.76398-82.53220262°68km/h18746m4.7m/s-64.3°C0%0hPa0V00:00:0000:00:0000:00:00
ARGUS22026-09-02 12:08:5227.76478-82.52956243°38km/h18648m4.7m/s-65.2°C0%0hPa0V00:00:0000:00:0000:00:00
ARGUS22026-09-02 12:08:3127.76550-82.52766257°35km/h18556m4.5m/s-65.5°C0%0hPa0V00:00:0000:00:0000:00:00
ARGUS22026-09-02 12:08:1127.76602-82.52595241°44km/h18454m4.4m/s-65.9°C0%0hPa0V00:00:0000:00:0000:00:00
ARGUS22026-09-02 12:07:5027.76678-82.52390248°44km/h18352m5.3m/s-65.3°C0%0hPa0V00:00:0000:00:0000:00:00
ARGUS22026-09-02 12:07:3027.76798-82.52137232°46km/h18246m5.9m/s-65.0°C0%0hPa0V00:00:0000:00:0000:00:00
ARGUS22026-09-02 12:07:0927.76915-82.51906238°49km/h18147m3.4m/s-64.7°C0%0hPa0V00:00:0000:00:0000:00:00
ARGUS22026-09-02 12:06:4927.77011-82.51700246°42km/h18041m4.9m/s-64.8°C0%0hPa0V00:00:0000:00:0000:00:00
ARGUS22026-09-02 12:06:2827.77100-82.51498237°33km/h17943m3.6m/s-65.6°C0%0hPa0V00:00:0000:00:0000:00:00
ARGUS22026-09-02 12:06:0827.77219-82.51279235°47km/h17841m5.0m/s-65.8°C0%0hPa0V00:00:0000:00:0000:00:00
ARGUS22026-09-02 12:05:4627.77310-82.51099231°35km/h17739m5.1m/s-65.8°C0%0hPa0V00:00:0000:00:0000:00:00
ARGUS22026-09-02 12:05:2627.77367-82.50977235°9km/h17644m3.5m/s-66.5°C0%0hPa0V00:00:0000:00:0000:00:00
ARGUS22026-09-02 12:05:0527.77393-82.50880276°18km/h17544m4.4m/s-66.7°C0%0hPa0V00:00:0000:00:0000:00:00
ARGUS22026-09-02 12:04:4527.77405-82.50780240°31km/h17452m5.3m/s-66.7°C0%0hPa0V00:00:0000:00:0000:00:00
ARGUS22026-09-02 12:04:2427.77434-82.50630276°31km/h17349m3.8m/s-65.9°C0%0hPa0V00:00:0000:00:0000:00:00
ARGUS22026-09-02 12:03:4427.77568-82.50216229°42km/h17151m6.0m/s-67.8°C0%0hPa0V00:00:0000:00:0000:00:00
ARGUS22026-09-02 12:03:0327.77844-82.49827240°42km/h16958m4.2m/s-67.2°C0%0hPa0V00:00:0000:00:0000:00:00
ARGUS22026-09-02 12:02:4227.77951-82.49676234°33km/h16865m3.7m/s-67.0°C0%0hPa0V00:00:0000:00:0000:00:00
ARGUS22026-09-02 12:02:2227.78001-82.49530263°16km/h16764m3.7m/s-67.8°C0%0hPa0V00:00:0000:00:0000:00:00
ARGUS22026-09-02 12:02:0127.78029-82.49401245°24km/h16672m5.1m/s-68.1°C0%0hPa0V00:00:0000:00:0000:00:00
ARGUS22026-09-02 12:01:4127.78064-82.49250262°22km/h16575m5.5m/s-68.1°C0%0hPa0V00:00:0000:00:0000:00:00
ARGUS22026-09-02 12:01:2127.78109-82.49104254°31km/h16484m4.7m/s-67.7°C0%0hPa0V00:00:0000:00:0000:00:00
ARGUS22026-09-02 12:01:0027.78176-82.48960251°31km/h16384m3.9m/s-67.3°C0%0hPa0V00:00:0000:00:0000:00:00
ARGUS22026-09-02 12:00:3927.78259-82.48837245°27km/h16289m4.8m/s-67.6°C0%0hPa0V00:00:0000:00:0000:00:00
ARGUS22026-09-02 12:00:1927.78269-82.48719306°29km/h16191m5.2m/s-67.9°C0%0hPa0V00:00:0000:00:0000:00:00
ARGUS22026-09-02 11:59:5827.78225-82.48568293°26km/h16093m4.2m/s-67.6°C0%0hPa0V00:00:0000:00:0000:00:00
ARGUS22026-09-02 11:59:3827.78198-82.48393273°35km/h16005m5.0m/s-67.7°C0%0hPa0V00:00:0000:00:0000:00:00
ARGUS22026-09-02 11:59:1627.78196-82.48227290°24km/h15908m3.6m/s-67.8°C0%0hPa0V00:00:0000:00:0000:00:00
ARGUS22026-09-02 11:58:5627.78214-82.48110250°20km/h15817m3.1m/s-68.6°C0%0hPa0V00:00:0000:00:0000:00:00
ARGUS22026-09-02 11:58:3627.78229-82.47979257°22km/h15721m5.2m/s-69.8°C0%0hPa0V00:00:0000:00:0000:00:00
ARGUS22026-09-02 11:58:1527.78250-82.47847242°26km/h15629m5.8m/s-70.1°C0%0hPa0V00:00:0000:00:0000:00:00
ARGUS22026-09-02 11:57:5527.78320-82.47738221°22km/h15530m4.6m/s-69.9°C0%0hPa0V00:00:0000:00:0000:00:00
ARGUS22026-09-02 11:57:3427.78371-82.47690202°18km/h15435m5.1m/s-69.3°C0%0hPa0V00:00:0000:00:0000:00:00
ARGUS22026-09-02 11:56:5427.78456-82.4762637°4km/h15233m5.4m/s-68.9°C0%0hPa0V00:00:0000:00:0000:00:00
ARGUS22026-09-02 11:56:3327.78470-82.47619313°4km/h15135m4.4m/s-69.3°C0%0hPa0V00:00:0000:00:0000:00:00
ARGUS22026-09-02 11:56:1327.78451-82.4760717°13km/h15042m3.9m/s-70.0°C0%0hPa0V00:00:0000:00:0000:00:00
ARGUS22026-09-02 11:55:5227.78423-82.4764939°18km/h14946m4.2m/s-70.4°C0%0hPa0V00:00:0000:00:0000:00:00
ARGUS22026-09-02 11:55:3127.78359-82.4768342°16km/h14849m3.7m/s-69.6°C0%0hPa0V00:00:0000:00:0000:00:00
ARGUS22026-09-02 11:55:1127.78277-82.4772153°24km/h14756m5.0m/s-68.9°C0%0hPa0V00:00:0000:00:0000:00:00
ARGUS22026-09-02 11:54:5027.78168-82.4777118°16km/h14659m6.3m/s-68.2°C0%0hPa0V00:00:0000:00:0000:00:00
ARGUS22026-09-02 11:54:2927.78033-82.47811355°42km/h14565m4.9m/s-67.6°C0%0hPa0V00:00:0000:00:0000:00:00
ARGUS22026-09-02 11:54:0927.77850-82.4785629°31km/h14433m6.2m/s-66.8°C0%0hPa0V00:00:0000:00:0000:00:00
ARGUS22026-09-02 11:53:4827.77631-82.47860351°42km/h14321m4.8m/s-65.9°C0%0hPa0V00:00:0000:00:0000:00:00
ARGUS22026-09-02 11:53:2827.77371-82.4785949km/h14206m3.5m/s-65.3°C0%0hPa0V00:00:0000:00:0000:00:00
ARGUS22026-09-02 11:53:0727.77112-82.47829353°49km/h14114m4.3m/s-64.7°C0%0hPa0V00:00:0000:00:0000:00:00
ARGUS22026-09-02 11:52:4727.76869-82.4780011°47km/h14023m3.9m/s-64.0°C0%0hPa0V00:00:0000:00:0000:00:00
ARGUS22026-09-02 11:52:2727.76645-82.47785343°57km/h13934m3.5m/s-63.3°C0%0hPa0V00:00:0000:00:0000:00:00
ARGUS22026-09-02 11:52:0627.76442-82.4777129km/h13825m4.9m/s-62.4°C0%0hPa0V00:00:0000:00:0000:00:00
ARGUS22026-09-02 11:51:4627.76272-82.47762355°29km/h13743m3.9m/s-61.8°C0%0hPa0V00:00:0000:00:0000:00:00
ARGUS22026-09-02 11:51:2527.76094-82.47736351°33km/h13657m4.3m/s-61.1°C0%0hPa0V00:00:0000:00:0000:00:00
ARGUS22026-09-02 11:51:0527.75923-82.47714358°40km/h13573m4.9m/s-60.4°C0%0hPa0V00:00:0000:00:0000:00:00
ARGUS22026-09-02 11:50:4427.75741-82.47675351°33km/h13483m5.2m/s-59.7°C0%0hPa0V00:00:0000:00:0000:00:00
ARGUS22026-09-02 11:50:2327.75543-82.47650353°29km/h13396m3.1m/s-59.1°C0%0hPa0V00:00:0000:00:0000:00:00
ARGUS22026-09-02 11:50:0227.75350-82.47610348°35km/h13308m3.1m/s-58.4°C0%0hPa0V00:00:0000:00:0000:00:00
ARGUS22026-09-02 11:49:4227.75144-82.47564341°40km/h13217m4.5m/s-57.6°C0%0hPa0V00:00:0000:00:0000:00:00
ARGUS22026-09-02 11:49:2127.74950-82.47507353°40km/h13131m5.1m/s-57.0°C0%0hPa0V00:00:0000:00:0000:00:00
ARGUS22026-09-02 11:49:0127.74747-82.47462357°38km/h13040m4.3m/s-56.3°C0%0hPa0V00:00:0000:00:0000:00:00
ARGUS22026-09-02 11:48:4127.74558-82.47428330°38km/h12950m4.2m/s-55.6°C0%0hPa0V00:00:0000:00:0000:00:00
ARGUS22026-09-02 11:48:2027.74357-82.47388354°42km/h12861m4.8m/s-54.7°C0%0hPa0V00:00:0000:00:0000:00:00
ARGUS22026-09-02 11:47:5927.74173-82.47357360°37km/h12771m5.0m/s-54.1°C0%0hPa0V00:00:0000:00:0000:00:00
ARGUS22026-09-02 11:47:1827.73827-82.47291341°33km/h12589m3.4m/s-52.5°C0%0hPa0V00:00:0000:00:0000:00:00
ARGUS22026-09-02 11:46:5827.73666-82.47266355°31km/h12493m4.0m/s-51.8°C0%0hPa0V00:00:0000:00:0000:00:00
ARGUS22026-09-02 11:46:3827.73508-82.4725635km/h12398m3.9m/s-51.0°C0%0hPa0V00:00:0000:00:0000:00:00
ARGUS22026-09-02 11:46:1727.73336-82.47240352°42km/h12303m5.2m/s-50.2°C0%0hPa0V00:00:0000:00:0000:00:00
ARGUS22026-09-02 11:45:5727.73158-82.4723038km/h12206m4.8m/s-49.3°C0%0hPa0V00:00:0000:00:0000:00:00
ARGUS22026-09-02 11:45:3627.72968-82.47214360°40km/h12105m4.1m/s-48.6°C0%0hPa0V00:00:0000:00:0000:00:00
ARGUS22026-09-02 11:45:1427.72757-82.47192350°46km/h12007m3.8m/s-47.8°C0%0hPa0V00:00:0000:00:0000:00:00
ARGUS22026-09-02 11:44:5427.72573-82.47182354°37km/h11913m4.9m/s-47.0°C0%0hPa0V00:00:0000:00:0000:00:00
ARGUS22026-09-02 11:44:3327.72393-82.47173346°27km/h11818m5.0m/s-46.3°C0%0hPa0V00:00:0000:00:0000:00:00
ARGUS22026-09-02 11:44:1427.72242-82.47184346°37km/h11725m3.7m/s-45.5°C0%0hPa0V00:00:0000:00:0000:00:00
ARGUS22026-09-02 11:43:5227.72091-82.47190354°27km/h11626m5.2m/s-44.6°C0%0hPa0V00:00:0000:00:0000:00:00
ARGUS22026-09-02 11:43:3227.71960-82.4719427°18km/h11530m4.2m/s-43.8°C0%0hPa0V00:00:0000:00:0000:00:00
ARGUS22026-09-02 11:43:1227.71829-82.4718624km/h11428m5.8m/s-43.0°C0%0hPa0V00:00:0000:00:0000:00:00
ARGUS22026-09-02 11:42:5127.71726-82.4717824°20km/h11336m4.4m/s-42.2°C0%0hPa0V00:00:0000:00:0000:00:00
ARGUS22026-09-02 11:42:3127.71636-82.4717324km/h11241m3.9m/s-41.5°C0%0hPa0V00:00:0000:00:0000:00:00
ARGUS22026-09-02 11:42:1027.71557-82.47132344°15km/h11153m4.6m/s-40.8°C0%0hPa0V00:00:0000:00:0000:00:00
ARGUS22026-09-02 11:41:4927.71484-82.47092345°15km/h11060m3.6m/s-40.0°C0%0hPa0V00:00:0000:00:0000:00:00
ARGUS22026-09-02 11:41:2927.71408-82.47049344°16km/h10971m4.8m/s-39.3°C0%0hPa0V00:00:0000:00:0000:00:00
ARGUS22026-09-02 11:41:0927.71314-82.46995339°18km/h10877m3.8m/s-38.6°C0%0hPa0V00:00:0000:00:0000:00:00
ARGUS22026-09-02 11:40:4827.71226-82.46909313°29km/h10791m5.0m/s-38.1°C0%0hPa0V00:00:0000:00:0000:00:00
ARGUS22026-09-02 11:40:2827.71130-82.46834320°22km/h10700m4.1m/s-37.2°C0%0hPa0V00:00:0000:00:0000:00:00
ARGUS22026-09-02 11:40:0727.71039-82.46767298°16km/h10612m4.2m/s-36.7°C0%0hPa0V00:00:0000:00:0000:00:00
ARGUS22026-09-02 11:39:4627.70952-82.46745343°20km/h10529m5.0m/s-36.2°C0%0hPa0V00:00:0000:00:0000:00:00
ARGUS22026-09-02 11:39:2527.70860-82.4673116km/h10446m4.9m/s-35.5°C0%0hPa0V00:00:0000:00:0000:00:00
ARGUS22026-09-02 11:38:1927.70618-82.46619350°13km/h10182m4.5m/s-33.9°C0%0hPa0V00:00:0000:00:0000:00:00
ARGUS22026-09-02 11:37:5827.70538-82.46603355°16km/h10099m3.1m/s-33.4°C0%0hPa0V00:00:0000:00:0000:00:00
ARGUS22026-09-02 11:37:3727.70469-82.46606358°11km/h10017m4.4m/s-32.7°C0%0hPa0V00:00:0000:00:0000:00:00
ARGUS22026-09-02 11:37:1727.70395-82.4661311°7km/h9938m4.1m/s-32.0°C0%0hPa0V00:00:0000:00:0000:00:00
ARGUS22026-09-02 11:36:5727.70322-82.46622344°13km/h9854m3.3m/s-31.4°C0%0hPa0V00:00:0000:00:0000:00:00
ARGUS22026-09-02 11:36:3627.70264-82.4664559°16km/h9775m4.5m/s-30.9°C0%0hPa0V00:00:0000:00:0000:00:00
ARGUS22026-09-02 11:36:1627.70218-82.466777km/h9689m4.2m/s-30.2°C0%0hPa0V00:00:0000:00:0000:00:00
ARGUS22026-09-02 11:35:5527.70183-82.46701125°7km/h9608m3.5m/s-29.8°C0%0hPa0V00:00:0000:00:0000:00:00
ARGUS22026-09-02 11:35:3427.70169-82.46737103°15km/h9524m3.8m/s-29.2°C0%0hPa0V00:00:0000:00:0000:00:00
ARGUS22026-09-02 11:34:5327.70166-82.46817345°9km/h9356m4.1m/s-27.8°C0%0hPa0V00:00:0000:00:0000:00:00
ARGUS22026-09-02 11:34:3227.70149-82.4683647°13km/h9267m3.9m/s-27.3°C0%0hPa0V00:00:0000:00:0000:00:00
ARGUS22026-09-02 11:34:1327.70103-82.4684838°5km/h9183m3.8m/s-26.9°C0%0hPa0V00:00:0000:00:0000:00:00
ARGUS22026-09-02 11:33:5127.70053-82.4684417°11km/h9093m4.6m/s-26.2°C0%0hPa0V00:00:0000:00:0000:00:00
ARGUS22026-09-02 11:33:2927.70000-82.46820315°9km/h9001m4.9m/s-25.5°C0%0hPa0V00:00:0000:00:0000:00:00
ARGUS22026-09-02 11:33:0927.69951-82.46773278°13km/h8913m3.2m/s-24.8°C0%0hPa0V00:00:0000:00:0000:00:00
ARGUS22026-09-02 11:32:4827.69914-82.46709325°9km/h8825m4.8m/s-24.2°C0%0hPa0V00:00:0000:00:0000:00:00
ARGUS22026-09-02 11:32:2627.69868-82.46665305°13km/h8743m4.2m/s-23.5°C0%0hPa0V00:00:0000:00:0000:00:00
ARGUS22026-09-02 11:32:0427.69835-82.46596282°13km/h8649m4.1m/s-23.0°C0%0hPa0V00:00:0000:00:0000:00:00
ARGUS22026-09-02 11:31:4027.69806-82.46494335°11km/h8559m2.8m/s-22.5°C0%0hPa0V00:00:0000:00:0000:00:00
ARGUS22026-09-02 11:31:1527.69751-82.46393304°13km/h8458m3.5m/s-21.9°C0%0hPa0V00:00:0000:00:0000:00:00
ARGUS22026-09-02 11:30:5427.69713-82.46303287°13km/h8373m4.6m/s-21.4°C0%0hPa0V00:00:0000:00:0000:00:00
ARGUS22026-09-02 11:30:3327.69684-82.46199315°11km/h8277m5.6m/s-20.7°C0%0hPa0V00:00:0000:00:0000:00:00
ARGUS22026-09-02 11:30:1327.69668-82.46123279°22km/h8184m4.6m/s-20.0°C0%0hPa0V00:00:0000:00:0000:00:00
ARGUS22026-09-02 11:29:3227.69622-82.45959282°16km/h8020m4.3m/s-18.8°C0%0hPa0V00:00:0000:00:0000:00:00
ARGUS22026-09-02 11:29:1227.69589-82.45879280°9km/h7937m5.8m/s-18.2°C0%0hPa0V00:00:0000:00:0000:00:00
ARGUS22026-09-02 11:28:5127.69581-82.45805205°4km/h7841m5.1m/s-17.4°C0%0hPa0V00:00:0000:00:0000:00:00
ARGUS22026-09-02 11:28:2727.69564-82.45769314°4km/h7746m3.8m/s-16.7°C0%0hPa0V00:00:0000:00:0000:00:00
ARGUS22026-09-02 11:28:0627.69544-82.45734315°2km/h7663m3.2m/s-16.0°C0%0hPa0V00:00:0000:00:0000:00:00
ARGUS22026-09-02 11:27:4527.69510-82.457050km/h7584m3.3m/s-16.0°C0%0hPa0V00:00:0000:00:0000:00:00
ARGUS22026-09-02 11:27:2427.69485-82.45674326°7km/h7502m4.3m/s-15.6°C0%0hPa0V00:00:0000:00:0000:00:00
ARGUS22026-09-02 11:27:0427.69446-82.45638323°26km/h7410m4.6m/s-15.1°C0%0hPa0V00:00:0000:00:0000:00:00
ARGUS22026-09-02 11:26:4327.69395-82.45582348°16km/h7325m4.2m/s-15.1°C0%0hPa0V00:00:0000:00:0000:00:00
ARGUS22026-09-02 11:26:2227.69365-82.45521332°11km/h7237m3.1m/s-14.4°C0%0hPa0V00:00:0000:00:0000:00:00
ARGUS22026-09-02 11:25:5827.69342-82.45444315°13km/h7136m3.5m/s-13.5°C0%0hPa0V00:00:0000:00:0000:00:00
ARGUS22026-09-02 11:25:3227.69332-82.45345264°13km/h7023m4.6m/s-12.6°C0%0hPa0V00:00:0000:00:0000:00:00
ARGUS22026-09-02 11:25:0727.69328-82.45264297°11km/h6918m4.2m/s-11.8°C0%0hPa0V00:00:0000:00:0000:00:00
ARGUS22026-09-02 11:24:4427.69327-82.45199267°9km/h6814m4.9m/s-11.2°C0%0hPa0V00:00:0000:00:0000:00:00
ARGUS22026-09-02 11:24:2227.69342-82.45158309°5km/h6690m4.3m/s-10.6°C0%0hPa0V00:00:0000:00:0000:00:00
ARGUS22026-09-02 11:23:5127.69321-82.45086281°11km/h6578m4.6m/s-9.9°C0%0hPa0V00:00:0000:00:0000:00:00
ARGUS22026-09-02 11:23:2727.69279-82.45000302°15km/h6476m4.3m/s-9.3°C0%0hPa0V00:00:0000:00:0000:00:00
ARGUS22026-09-02 11:23:0627.69225-82.44912320°13km/h6379m4.1m/s-8.6°C0%0hPa0V00:00:0000:00:0000:00:00
ARGUS22026-09-02 11:22:4527.69157-82.44819332°26km/h6265m3.9m/s-8.0°C0%0hPa0V00:00:0000:00:0000:00:00
ARGUS22026-09-02 11:22:2327.69088-82.44704327°26km/h6160m4.8m/s-7.2°C0%0hPa0V00:00:0000:00:0000:00:00
ARGUS22026-09-02 11:22:0327.69028-82.44576312°24km/h6067m7.4m/s-6.9°C0%0hPa0V00:00:0000:00:0000:00:00
ARGUS22026-09-02 11:21:4127.68975-82.44470273°24km/h5958m3.9m/s-6.1°C0%0hPa0V00:00:0000:00:0000:00:00
ARGUS22026-09-02 11:21:2127.68942-82.44350294°13km/h5871m3.1m/s-5.7°C0%0hPa0V00:00:0000:00:0000:00:00
ARGUS22026-09-02 11:21:0127.68908-82.44231299°15km/h5781m3.4m/s-5.3°C0%0hPa0V00:00:0000:00:0000:00:00
ARGUS22026-09-02 11:20:0327.68897-82.43909275°35km/h5546m4.4m/s-4.6°C0%0hPa0V00:00:0000:00:0000:00:00
ARGUS22026-09-02 11:19:3327.68894-82.43693280°16km/h5408m4.7m/s-3.8°C0%0hPa0V00:00:0000:00:0000:00:00
ARGUS22026-09-02 11:19:1327.68894-82.43568292°26km/h5322m3.1m/s-3.2°C0%0hPa0V00:00:0000:00:0000:00:00
ARGUS22026-09-02 11:18:5227.68899-82.43439263°24km/h5246m4.6m/s-2.8°C0%0hPa0V00:00:0000:00:0000:00:00
ARGUS22026-09-02 11:18:3227.68899-82.43306294°16km/h5165m3.0m/s-2.5°C0%0hPa0V00:00:0000:00:0000:00:00
ARGUS22026-09-02 11:18:1027.68899-82.43180257°5km/h5083m3.6m/s-2.1°C0%0hPa0V00:00:0000:00:0000:00:00
ARGUS22026-09-02 11:17:3027.68945-82.42956224°27km/h4859m2.8m/s-0.7°C0%0hPa0V00:00:0000:00:0000:00:00
ARGUS22026-09-02 11:17:0827.68942-82.42834283°27km/h4748m4.9m/s0.0°C0%0hPa0V00:00:0000:00:0000:00:00
ARGUS22026-09-02 11:16:4627.68954-82.42695241°22km/h4656m2.9m/s0.7°C0%0hPa0V00:00:0000:00:0000:00:00
ARGUS22026-09-02 11:16:1327.68958-82.42516279°24km/h4498m6.3m/s1.6°C0%0hPa0V00:00:0000:00:0000:00:00
ARGUS22026-09-02 11:15:5227.68971-82.42435260°35km/h4390m6.2m/s2.2°C0%0hPa0V00:00:0000:00:0000:00:00
ARGUS22026-09-02 11:15:1727.68976-82.42245272°27km/h4197m4.6m/s3.5°C0%0hPa0V00:00:0000:00:0000:00:00
ARGUS22026-09-02 11:14:5627.68998-82.42142210°13km/h4090m5.8m/s4.3°C0%0hPa0V00:00:0000:00:0000:00:00
ARGUS22026-09-02 11:14:3527.69045-82.42048209°22km/h3991m3.2m/s5.2°C0%0hPa0V00:00:0000:00:0000:00:00
ARGUS22026-09-02 11:12:1127.69358-82.41630229°15km/h3210m6.3m/s9.5°C0%0hPa0V00:00:0000:00:0000:00:00
ARGUS22026-09-02 11:11:5127.69412-82.4159374°5km/h3102m4.2m/s9.9°C0%0hPa0V00:00:0000:00:0000:00:00
ARGUS22026-09-02 11:11:3027.69440-82.41546213°26km/h2983m7.1m/s10.1°C0%0hPa0V00:00:0000:00:0000:00:00
ARGUS22026-09-02 11:08:5527.69707-82.41236137°11km/h2113m5.6m/s14.9°C0%0hPa0V00:00:0000:00:0000:00:00
ARGUS22026-09-02 11:08:2927.69753-82.41216294°9km/h1962m4.3m/s15.4°C0%0hPa0V00:00:0000:00:0000:00:00
ARGUS22026-09-02 11:08:0727.69795-82.41124232°31km/h1843m4.5m/s16.1°C0%0hPa0V00:00:0000:00:0000:00:00
ARGUS22026-09-02 11:07:4627.69848-82.41037223°29km/h1720m5.9m/s16.7°C0%0hPa0V00:00:0000:00:0000:00:00
ARGUS22026-09-02 11:07:2427.69889-82.40963303°9km/h1590m4.9m/s17.4°C0%0hPa0V00:00:0000:00:0000:00:00
ARGUS22026-09-02 11:06:5727.69932-82.408600km/h1440m5.8m/s18.4°C0%0hPa0V00:00:0000:00:0000:00:00
ARGUS22026-09-02 11:06:3527.69969-82.40800166°15km/h1318m6.0m/s19.0°C0%0hPa0V00:00:0000:00:0000:00:00


GPX KML Map

© wettersonde.net (DO2JMG) - 2026  -  -